Time;durP1;ratioP1;P1;durP2;ratioP2;P2;SDS_P1;SDS_P2;PMS_P1;PMS_P2;Temp;Humidity;BMP_temperature;BMP_pressure;BME280_temperature;BME280_humidity;BME280_pressure;Samples;Min_cycle;Max_cycle;Signal;HPM_P1;HPM_P2
2023/12/09 00:01:42;;;;;;;;;;;;;;;18.07;42.34;101115.78;4984083;28;1914;-51
2023/12/09 00:04:07;;;;;;;;;;;;;;;18.09;41.88;101119.94;4981184;28;2596;-50
2023/12/09 00:06:33;;;;;;;;;;;;;;;17.96;42.76;101131.47;4997049;28;1035;-52
2023/12/09 00:08:58;;;;;;;;;;;;;;;19.43;39.20;101129.75;4983349;28;1097;-50
2023/12/09 00:11:24;;;;;;;;;;;;;;;15.03;49.94;101130.25;4995544;28;1019;-50
2023/12/09 00:13:51;;;;;;;;;;;;;;;18.54;41.48;101130.34;4984096;28;1099;-49
2023/12/09 00:16:18;;;;;;;;;;;;;;;18.39;41.25;101126.50;4988720;28;905;-51
2023/12/09 00:18:44;;;;;;;;;;;;;;;17.61;42.86;101124.78;4983647;28;1060;-51
2023/12/09 00:21:10;;;;;;;;;;;;;;;18.32;41.88;101134.22;4989696;28;1926;-51
2023/12/09 00:23:36;;;;;;;;;;;;;;;17.55;42.99;101143.19;4995701;28;1116;-49
2023/12/09 00:26:02;;;;;;;;;;;;;;;18.07;42.48;101152.38;5000395;28;1009;-52
2023/12/09 00:28:28;;;;;;;;;;;;;;;18.47;40.96;101131.44;4983660;28;945;-50
2023/12/09 00:30:53;;;;;;;;;;;;;;;17.60;42.94;101128.66;4995650;28;1576;-51
2023/12/09 00:33:19;;;;;;;;;;;;;;;18.85;40.56;101130.28;4997740;28;2329;-50
2023/12/09 00:35:44;;;;;;;;;;;;;;;18.07;41.95;101122.13;4991680;28;1193;-52
2023/12/09 00:38:10;;;;;;;;;;;;;;;17.47;43.19;101124.47;4982800;28;1021;-52
2023/12/09 00:40:36;;;;;;;;;;;;;;;18.55;40.89;101123.72;4990680;28;857;-48
2023/12/09 00:43:01;;;;;;;;;;;;;;;18.24;41.80;101127.38;4998546;28;1902;-50
2023/12/09 00:45:27;;;;;;;;;;;;;;;19.59;38.67;101127.75;4988254;28;1212;-50
2023/12/09 00:47:52;;;;;;;;;;;;;;;15.77;47.84;101125.31;4987068;28;1000;-50
2023/12/09 00:50:18;;;;;;;;;;;;;;;18.55;41.30;101129.22;5000071;28;1114;-51
2023/12/09 00:52:43;;;;;;;;;;;;;;;19.21;39.54;101121.88;4996744;28;891;-50
2023/12/09 00:55:09;;;;;;;;;;;;;;;15.88;47.90;101110.66;4999916;28;1032;-51
2023/12/09 00:57:35;;;;;;;;;;;;;;;18.83;40.66;101114.03;4987115;28;1101;-49
2023/12/09 01:00:00;;;;;;;;;;;;;;;18.45;41.24;101122.66;4992132;28;1227;-48
2023/12/09 01:02:26;;;;;;;;;;;;;;;17.66;42.90;101121.25;4992295;28;2499;-49
2023/12/09 01:04:52;;;;;;;;;;;;;;;18.70;40.84;101112.66;4982150;28;875;-51
2023/12/09 01:07:17;;;;;;;;;;;;;;;17.74;42.81;101123.44;4994960;28;1109;-51
2023/12/09 01:09:43;;;;;;;;;;;;;;;19.11;40.04;101109.81;4999581;28;1024;-50
2023/12/09 01:12:08;;;;;;;;;;;;;;;16.27;45.82;101112.31;4997772;28;1135;-51
2023/12/09 01:14:34;;;;;;;;;;;;;;;17.56;43.73;101122.06;4979749;28;1199;-49
2023/12/09 01:17:00;;;;;;;;;;;;;;;19.32;39.71;101118.81;4984570;28;951;-50
2023/12/09 01:19:25;;;;;;;;;;;;;;;15.17;48.84;101122.50;4999671;28;1051;-51
2023/12/09 01:21:51;;;;;;;;;;;;;;;18.37;41.86;101116.88;4999218;28;1971;-50
2023/12/09 01:24:18;;;;;;;;;;;;;;;18.67;40.83;101115.16;4991037;28;1126;-53
2023/12/09 01:26:43;;;;;;;;;;;;;;;17.77;42.47;101117.41;4981363;28;989;-51
2023/12/09 01:29:09;;;;;;;;;;;;;;;18.70;41.03;101114.59;4980971;28;829;-52
2023/12/09 01:31:35;;;;;;;;;;;;;;;18.04;42.00;101130.09;4981022;28;1100;-52
2023/12/09 01:34:00;;;;;;;;;;;;;;;18.36;41.60;101123.50;4990164;28;2622;-52
2023/12/09 01:36:26;;;;;;;;;;;;;;;18.84;40.05;101117.59;4997504;28;1075;-50
2023/12/09 01:38:52;;;;;;;;;;;;;;;15.71;48.18;101117.06;4999004;28;1004;-51
2023/12/09 01:41:17;;;;;;;;;;;;;;;18.81;40.58;101119.78;4993156;28;1898;-52
2023/12/09 01:43:47;;;;;;;;;;;;;;;18.20;41.85;101114.41;4979539;28;1308;-48
2023/12/09 01:46:13;;;;;;;;;;;;;;;17.55;42.92;101114.88;4992328;28;1085;-50
2023/12/09 01:48:38;;;;;;;;;;;;;;;18.55;40.81;101107.19;4979721;28;1107;-52
2023/12/09 01:51:04;;;;;;;;;;;;;;;17.52;42.85;101120.94;4995150;28;1142;-52
2023/12/09 01:53:30;;;;;;;;;;;;;;;18.51;41.13;101115.22;4986099;28;915;-49
2023/12/09 01:55:56;;;;;;;;;;;;;;;18.36;41.03;101110.53;4984654;28;1031;-52
2023/12/09 01:58:21;;;;;;;;;;;;;;;17.56;42.79;101105.56;4979475;28;1072;-49
2023/12/09 02:00:47;;;;;;;;;;;;;;;17.61;42.97;101102.78;5007470;28;1906;-51
2023/12/09 02:03:12;;;;;;;;;;;;;;;17.97;41.96;101107.56;4993770;28;2555;-50
2023/12/09 02:05:38;;;;;;;;;;;;;;;18.16;41.87;101113.31;4986235;28;1083;-48
2023/12/09 02:08:03;;;;;;;;;;;;;;;19.48;39.02;101097.47;4991586;28;1012;-49
2023/12/09 02:10:29;;;;;;;;;;;;;;;14.88;49.64;101098.03;4991846;28;1020;-49
2023/12/09 02:13:05;;;;;;;;;;;;;;;18.32;41.68;101084.66;4985955;28;1045;-52
2023/12/09 02:15:34;;;;;;;;;;;;;;;18.46;41.06;101082.97;4984047;28;1059;-50
2023/12/09 02:18:01;;;;;;;;;;;;;;;17.59;42.95;101083.81;4992371;28;997;-49
2023/12/09 02:20:27;;;;;;;;;;;;;;;17.60;42.90;101084.66;4980032;28;1009;-49
2023/12/09 02:23:06;;;;;;;;;;;;;;;17.79;42.22;101088.53;4996632;28;1910;-51
2023/12/09 02:25:31;;;;;;;;;;;;;;;18.28;41.37;101097.34;4994521;28;1083;-50
2023/12/09 02:27:57;;;;;;;;;;;;;;;19.15;39.53;101094.34;4983193;28;1227;-52
2023/12/09 02:30:26;;;;;;;;;;;;;;;15.30;48.74;101086.47;4985013;28;1231;-52
2023/12/09 02:32:51;;;;;;;;;;;;;;;18.64;40.77;101081.56;4986838;28;2234;-47
2023/12/09 02:35:17;;;;;;;;;;;;;;;18.07;41.82;101077.25;4990556;28;1125;-52
2023/12/09 02:37:42;;;;;;;;;;;;;;;17.40;43.12;101090.94;4978177;28;1114;-52
2023/12/09 02:40:11;;;;;;;;;;;;;;;18.58;40.70;101093.72;5010450;28;1091;-52
2023/12/09 02:42:37;;;;;;;;;;;;;;;17.53;42.99;101092.31;4985767;28;1910;-49
2023/12/09 02:45:03;;;;;;;;;;;;;;;18.77;40.45;101088.41;4981764;28;1179;-48
2023/12/09 02:47:29;;;;;;;;;;;;;;;16.57;44.65;101092.50;4985271;28;1079;-50
2023/12/09 02:49:54;;;;;;;;;;;;;;;17.18;44.25;101099.38;4996014;28;1134;-47
2023/12/09 02:52:20;;;;;;;;;;;;;;;19.04;39.67;101084.50;4993244;28;1200;-52
2023/12/09 02:54:46;;;;;;;;;;;;;;;17.83;42.27;101093.47;4993206;28;1000;-52
2023/12/09 02:57:11;;;;;;;;;;;;;;;17.33;43.59;101093.94;4988770;28;1077;-52
2023/12/09 02:59:37;;;;;;;;;;;;;;;18.06;41.74;101087.47;4997593;28;980;-51
2023/12/09 03:02:03;;;;;;;;;;;;;;;17.44;43.17;101081.84;4986684;28;2458;-50
2023/12/09 03:04:28;;;;;;;;;;;;;;;19.09;39.82;101084.44;4988399;28;1033;-51
2023/12/09 03:06:54;;;;;;;;;;;;;;;18.04;41.80;101078.63;4977658;28;1516;-51
2023/12/09 03:09:20;;;;;;;;;;;;;;;17.51;42.71;101081.59;4977031;28;1059;-48
2023/12/09 03:11:45;;;;;;;;;;;;;;;18.31;41.13;101085.75;4978094;28;1263;-52
2023/12/09 03:14:11;;;;;;;;;;;;;;;17.57;42.82;101093.44;4978889;28;1271;-51
2023/12/09 03:16:37;;;;;;;;;;;;;;;19.29;39.09;101113.00;4979169;28;1232;-49
2023/12/09 03:19:03;;;;;;;;;;;;;;;15.11;48.44;101098.84;4980465;28;1200;-51
2023/12/09 03:21:29;;;;;;;;;;;;;;;18.22;41.86;101101.22;4979326;28;1902;-52
2023/12/09 03:23:54;;;;;;;;;;;;;;;18.93;39.70;101091.97;4980339;28;1197;-50
2023/12/09 03:26:20;;;;;;;;;;;;;;;17.68;42.51;101094.28;4977761;28;1244;-52
2023/12/09 03:28:45;;;;;;;;;;;;;;;17.41;42.98;101098.91;4981135;28;1272;-52
2023/12/09 03:31:12;;;;;;;;;;;;;;;18.13;41.75;101092.66;4978861;28;1367;-53
2023/12/09 03:33:37;;;;;;;;;;;;;;;17.60;43.02;101095.66;4981090;28;2399;-53
2023/12/09 03:36:03;;;;;;;;;;;;;;;19.26;39.29;101097.03;4979653;28;1212;-52
2023/12/09 03:38:29;;;;;;;;;;;;;;;18.22;41.16;101084.69;4978254;28;1221;-52
2023/12/09 03:40:55;;;;;;;;;;;;;;;17.61;42.47;101086.28;4979905;28;1973;-51
2023/12/09 03:43:20;;;;;;;;;;;;;;;18.43;40.92;101096.50;4980537;28;1212;-52
2023/12/09 03:45:46;;;;;;;;;;;;;;;17.50;42.53;101092.88;4979462;28;1299;-50
2023/12/09 03:48:11;;;;;;;;;;;;;;;18.52;40.96;101099.50;4982450;28;1173;-51
2023/12/09 03:50:37;;;;;;;;;;;;;;;17.95;41.81;101085.81;4989756;28;1144;-51
2023/12/09 03:53:03;;;;;;;;;;;;;;;17.92;42.39;101075.34;4982190;28;1065;-49
2023/12/09 03:55:29;;;;;;;;;;;;;;;19.14;39.44;101073.41;4989393;28;1052;-52
2023/12/09 03:57:55;;;;;;;;;;;;;;;17.85;41.92;101080.25;4990408;28;933;-51
2023/12/09 04:00:22;;;;;;;;;;;;;;;17.30;42.87;101097.22;4989973;28;1051;-52
2023/12/09 04:02:48;;;;;;;;;;;;;;;18.20;41.41;101092.38;4983891;28;2453;-45
2023/12/09 04:05:13;;;;;;;;;;;;;;;17.45;42.79;101100.00;4980561;28;1212;-47
2023/12/09 04:07:39;;;;;;;;;;;;;;;18.82;40.35;101090.31;4979108;28;1239;-46
2023/12/09 04:10:05;;;;;;;;;;;;;;;17.94;41.59;101079.47;4977042;28;1252;-48
2023/12/09 04:12:30;;;;;;;;;;;;;;;17.41;42.65;101071.41;4977474;28;1311;-45
2023/12/09 04:14:57;;;;;;;;;;;;;;;18.61;40.46;101064.78;4978562;28;1263;-47
2023/12/09 04:17:22;;;;;;;;;;;;;;;17.99;41.96;101077.81;4978669;28;1263;-51
2023/12/09 04:19:48;;;;;;;;;;;;;;;19.43;38.86;101069.94;4980462;28;1195;-53
2023/12/09 04:22:14;;;;;;;;;;;;;;;15.27;48.40;101089.72;4977076;28;1967;-54
2023/12/09 04:24:42;;;;;;;;;;;;;;;18.35;41.31;101097.88;4977718;28;1247;-53
2023/12/09 04:27:07;;;;;;;;;;;;;;;19.29;39.29;101102.00;4978930;28;1196;-45
2023/12/09 04:29:33;;;;;;;;;;;;;;;15.53;48.09;101106.47;4987779;28;1310;-49
2023/12/09 04:31:58;;;;;;;;;;;;;;;18.72;40.42;101098.59;4986835;28;2556;-50
2023/12/09 04:34:24;;;;;;;;;;;;;;;18.30;41.21;101104.22;4980149;28;992;-48
2023/12/09 04:36:49;;;;;;;;;;;;;;;17.59;42.46;101110.50;4990131;28;1183;-49
2023/12/09 04:39:15;;;;;;;;;;;;;;;18.93;39.88;101111.25;4996724;28;1103;-50
2023/12/09 04:41:41;;;;;;;;;;;;;;;17.79;42.23;101116.03;4980893;28;1977;-49
2023/12/09 04:44:06;;;;;;;;;;;;;;;18.23;41.54;101125.69;4978524;28;1248;-45
2023/12/09 04:46:32;;;;;;;;;;;;;;;18.55;40.46;101121.81;4979161;28;1284;-48
2023/12/09 04:48:57;;;;;;;;;;;;;;;17.72;42.28;101112.69;4979076;28;1151;-46
2023/12/09 04:51:23;;;;;;;;;;;;;;;18.74;40.30;101116.50;4974615;28;1243;-51
2023/12/09 04:53:49;;;;;;;;;;;;;;;17.89;41.36;101125.38;4983461;28;1065;-53
2023/12/09 04:56:15;;;;;;;;;;;;;;;18.20;41.20;101108.91;4982057;28;1695;-49
2023/12/09 04:58:40;;;;;;;;;;;;;;;18.83;39.25;101094.75;4984371;28;1223;-53
2023/12/09 05:01:06;;;;;;;;;;;;;;;17.89;41.18;101086.88;4989599;28;1975;-63
2023/12/09 05:03:31;;;;;;;;;;;;;;;17.59;41.81;101100.31;4977359;28;1160;-53
2023/12/09 05:05:59;;;;;;;;;;;;;;;17.97;41.02;101122.13;4989484;28;1227;-54
2023/12/09 05:08:24;;;;;;;;;;;;;;;17.86;41.47;101115.75;4981209;28;2099;-54
2023/12/09 05:10:50;;;;;;;;;;;;;;;19.36;38.26;101113.53;4989869;28;1871;-54
2023/12/09 05:13:15;;;;;;;;;;;;;;;17.97;40.79;101108.38;4982991;28;1893;-55
2023/12/09 05:15:41;;;;;;;;;;;;;;;17.46;41.80;101120.09;4983842;28;1743;-55
2023/12/09 05:18:06;;;;;;;;;;;;;;;18.60;39.00;101107.19;4979087;28;1788;-57
2023/12/09 05:20:33;;;;;;;;;;;;;;;17.58;40.98;101114.34;4983690;28;2078;-56
2023/12/09 05:22:58;;;;;;;;;;;;;;;17.20;41.51;101116.44;4985683;28;2105;-56
2023/12/09 05:25:24;;;;;;;;;;;;;;;17.00;41.81;101111.69;4992933;28;1172;-55
2023/12/09 05:27:49;;;;;;;;;;;;;;;17.76;40.70;101116.56;4989724;28;1163;-53
2023/12/09 05:30:16;;;;;;;;;;;;;;;17.59;40.82;101114.06;4988309;28;886;-55
2023/12/09 05:32:42;;;;;;;;;;;;;;;17.13;41.79;101104.88;4983084;28;1318;-52
2023/12/09 05:35:08;;;;;;;;;;;;;;;16.86;42.63;101092.09;4982409;28;1140;-52
2023/12/09 05:37:33;;;;;;;;;;;;;;;16.62;43.09;101106.25;4986117;28;1275;-53
2023/12/09 05:39:59;;;;;;;;;;;;;;;16.42;43.36;101096.81;4996455;28;1392;-55
2023/12/09 05:42:25;;;;;;;;;;;;;;;16.26;43.54;101089.56;4988504;28;1899;-54
2023/12/09 05:44:51;;;;;;;;;;;;;;;16.05;44.22;101083.09;4982177;28;1032;-52
2023/12/09 05:47:16;;;;;;;;;;;;;;;15.91;44.32;101077.22;4993491;28;1051;-55
2023/12/09 05:49:42;;;;;;;;;;;;;;;15.77;44.87;101064.97;4983386;28;1350;-54
2023/12/09 05:52:07;;;;;;;;;;;;;;;15.66;44.97;101070.38;4979527;28;1368;-51
2023/12/09 05:54:34;;;;;;;;;;;;;;;15.52;45.26;101069.97;4986039;28;2559;-53
2023/12/09 05:57:00;;;;;;;;;;;;;;;15.45;45.60;101079.50;4997587;28;1143;-52
2023/12/09 05:59:25;;;;;;;;;;;;;;;15.35;45.62;101070.09;4998754;28;1056;-56
2023/12/09 06:01:51;;;;;;;;;;;;;;;16.06;44.15;101085.56;4985874;28;1985;-57
2023/12/09 06:04:17;;;;;;;;;;;;;;;17.24;41.32;101081.84;4986566;28;1059;-58
2023/12/09 06:06:42;;;;;;;;;;;;;;;16.44;42.95;101082.81;4981394;28;1246;-56
2023/12/09 06:09:09;;;;;;;;;;;;;;;15.89;44.03;101079.38;4985697;28;949;-55
2023/12/09 06:11:34;;;;;;;;;;;;;;;15.60;44.99;101074.19;4991354;28;1053;-58
2023/12/09 06:14:00;;;;;;;;;;;;;;;15.48;45.19;101073.50;4986618;28;1098;-57
2023/12/09 06:16:26;;;;;;;;;;;;;;;16.77;42.25;101061.56;4984567;28;1162;-58
2023/12/09 06:18:51;;;;;;;;;;;;;;;16.58;42.70;101061.22;4995146;28;899;-57
2023/12/09 06:21:23;;;;;;;;;;;;;;;15.99;44.00;101062.19;4992999;28;1967;-58
2023/12/09 06:23:49;;;;;;;;;;;;;;;15.90;44.04;101053.63;4983971;28;2321;-58
2023/12/09 06:26:15;;;;;;;;;;;;;;;17.22;41.25;101070.25;4997940;28;1064;-57
2023/12/09 06:28:40;;;;;;;;;;;;;;;16.41;42.95;101066.84;4998452;28;1041;-58
2023/12/09 06:31:06;;;;;;;;;;;;;;;15.94;43.77;101071.22;4987447;28;1124;-58
2023/12/09 06:33:31;;;;;;;;;;;;;;;15.66;44.79;101075.88;4978488;28;1081;-58
2023/12/09 06:35:57;;;;;;;;;;;;;;;15.57;44.51;101071.94;4984520;28;1208;-57
2023/12/09 06:38:23;;;;;;;;;;;;;;;16.89;42.04;101069.63;4985034;28;1120;-56
2023/12/09 06:40:48;;;;;;;;;;;;;;;17.28;40.92;101088.44;4988961;28;1189;-59
2023/12/09 06:43:14;;;;;;;;;;;;;;;16.47;42.73;101084.22;4980344;28;1906;-58
2023/12/09 06:45:40;;;;;;;;;;;;;;;16.12;43.28;101066.38;4997978;28;1047;-57
2023/12/09 06:48:05;;;;;;;;;;;;;;;15.89;43.86;101069.25;4995295;28;1028;-59
2023/12/09 06:50:31;;;;;;;;;;;;;;;15.74;44.19;101072.66;4978263;28;1089;-56
2023/12/09 06:52:56;;;;;;;;;;;;;;;15.45;45.06;101069.38;4992978;28;1850;-56
2023/12/09 06:55:22;;;;;;;;;;;;;;;15.83;44.19;101064.00;4993969;28;968;-53
2023/12/09 06:57:47;;;;;;;;;;;;;;;17.12;41.31;101070.25;4994940;28;1083;-54
2023/12/09 07:00:14;;;;;;;;;;;;;;;16.51;42.74;101069.69;4985832;28;1084;-54
2023/12/09 07:02:40;;;;;;;;;;;;;;;15.87;44.23;101070.59;4994112;28;1917;-55
2023/12/09 07:05:06;;;;;;;;;;;;;;;15.59;44.75;101071.72;4997077;28;1053;-52
2023/12/09 07:07:32;;;;;;;;;;;;;;;15.44;44.94;101066.88;4981152;28;937;-54
2023/12/09 07:09:57;;;;;;;;;;;;;;;16.82;42.02;101072.56;4991864;28;1156;-54
2023/12/09 07:12:23;;;;;;;;;;;;;;;16.96;41.68;101078.44;4989614;28;1132;-56
2023/12/09 07:14:49;;;;;;;;;;;;;;;16.12;43.40;101071.88;4991677;28;1018;-57
2023/12/09 07:17:14;;;;;;;;;;;;;;;15.70;44.52;101077.00;4997054;28;1084;-52
2023/12/09 07:19:40;;;;;;;;;;;;;;;16.58;42.66;101080.44;4994396;28;1000;-53
2023/12/09 07:22:05;;;;;;;;;;;;;;;17.37;40.93;101075.81;4996907;28;1910;-56
2023/12/09 07:24:31;;;;;;;;;;;;;;;16.40;42.68;101071.53;4983815;28;1768;-55
2023/12/09 07:26:56;;;;;;;;;;;;;;;15.97;43.93;101080.84;4989780;28;1187;-56
2023/12/09 07:29:22;;;;;;;;;;;;;;;15.59;44.81;101075.25;4978644;28;1009;-55
2023/12/09 07:31:48;;;;;;;;;;;;;;;15.72;44.65;101072.09;4986959;28;1148;-49
2023/12/09 07:34:16;;;;;;;;;;;;;;;17.14;41.25;101051.56;4983459;28;1048;-55
2023/12/09 07:36:44;;;;;;;;;;;;;;;16.32;42.81;101072.03;4982486;28;1122;-57
2023/12/09 07:39:10;;;;;;;;;;;;;;;15.78;44.11;101069.38;4986509;28;982;-55
2023/12/09 07:41:36;;;;;;;;;;;;;;;15.45;45.19;101066.63;4993871;28;2084;-56
2023/12/09 07:44:02;;;;;;;;;;;;;;;15.63;44.75;101059.13;4995461;28;1017;-55
2023/12/09 07:46:27;;;;;;;;;;;;;;;17.01;41.76;101067.47;4996555;28;1055;-51
2023/12/09 07:48:53;;;;;;;;;;;;;;;16.57;42.29;101063.13;4987513;28;1110;-53
2023/12/09 07:51:19;;;;;;;;;;;;;;;15.90;43.98;101061.84;4990454;28;1295;-57
2023/12/09 07:53:44;;;;;;;;;;;;;;;15.59;44.57;101042.38;4977422;28;1838;-56
2023/12/09 07:56:10;;;;;;;;;;;;;;;15.74;44.68;101069.09;4979361;28;1061;-57
2023/12/09 07:58:36;;;;;;;;;;;;;;;17.13;41.48;101074.66;4983219;28;1005;-52
2023/12/09 08:01:01;;;;;;;;;;;;;;;16.69;42.28;101054.69;4996485;28;1903;-56
2023/12/09 08:03:29;;;;;;;;;;;;;;;16.06;43.62;101068.28;4978676;28;1081;-50
2023/12/09 08:05:54;;;;;;;;;;;;;;;15.64;44.76;101072.56;4982367;28;965;-53
2023/12/09 08:08:20;;;;;;;;;;;;;;;15.48;45.18;101070.78;4977127;28;920;-55
2023/12/09 08:10:45;;;;;;;;;;;;;;;15.85;44.40;101064.53;4977602;28;1267;-48
2023/12/09 08:13:11;;;;;;;;;;;;;;;17.15;41.42;101066.94;4988961;28;1009;-53
2023/12/09 08:15:37;;;;;;;;;;;;;;;16.46;42.67;101066.09;4991068;28;1012;-53
2023/12/09 08:18:03;;;;;;;;;;;;;;;15.88;44.19;101066.78;4988648;28;1030;-54
2023/12/09 08:20:29;;;;;;;;;;;;;;;17.16;41.35;101063.13;4995597;28;944;-54
2023/12/09 08:22:54;;;;;;;;;;;;;;;17.89;39.79;101056.59;4995297;28;2539;-53
2023/12/09 08:25:20;;;;;;;;;;;;;;;17.18;41.11;101066.41;4982527;28;1516;-55
2023/12/09 08:27:46;;;;;;;;;;;;;;;16.47;43.05;101054.84;4984558;28;1080;-52
2023/12/09 08:30:12;;;;;;;;;;;;;;;16.14;43.72;101059.56;4994664;28;1061;-55
2023/12/09 08:32:41;;;;;;;;;;;;;;;17.22;41.36;101064.78;4976971;28;1096;-54
2023/12/09 08:35:07;;;;;;;;;;;;;;;17.79;40.03;101060.19;4977254;28;1344;-55
2023/12/09 08:37:33;;;;;;;;;;;;;;;16.73;42.16;101066.78;4980595;28;882;-56
2023/12/09 08:39:59;;;;;;;;;;;;;;;16.25;43.31;101055.78;4992174;28;1061;-53
2023/12/09 08:42:25;;;;;;;;;;;;;;;16.17;43.45;101074.66;4993718;28;1979;-53
2023/12/09 08:44:51;;;;;;;;;;;;;;;17.54;40.61;101069.25;4983394;28;1093;-57
2023/12/09 08:47:16;;;;;;;;;;;;;;;17.18;41.15;101056.25;5000128;28;988;-54
2023/12/09 08:49:43;;;;;;;;;;;;;;;16.49;42.69;101047.16;4987071;28;1159;-53
2023/12/09 08:52:09;;;;;;;;;;;;;;;17.52;40.81;101043.97;5000029;28;1016;-54
2023/12/09 08:54:34;;;;;;;;;;;;;;;17.24;41.31;101048.84;4985940;28;2379;-53
2023/12/09 08:57:00;;;;;;;;;;;;;;;16.51;42.83;101035.91;4990956;28;1055;-55
2023/12/09 08:59:25;;;;;;;;;;;;;;;16.20;43.44;101032.97;4995607;28;1017;-54
2023/12/09 09:01:51;;;;;;;;;;;;;;;15.99;43.83;101041.09;5006384;28;1961;-52
2023/12/09 09:04:19;;;;;;;;;;;;;;;17.44;40.72;101046.13;4980132;28;1064;-49
2023/12/09 09:06:45;;;;;;;;;;;;;;;17.14;41.15;101035.06;4986905;28;1028;-53
2023/12/09 09:09:11;;;;;;;;;;;;;;;16.41;42.92;101040.25;4980222;28;1030;-53
2023/12/09 09:11:37;;;;;;;;;;;;;;;16.25;43.26;101046.75;4989427;28;1109;-53
2023/12/09 09:14:02;;;;;;;;;;;;;;;17.68;40.19;101042.84;4996905;28;1039;-54
2023/12/09 09:16:28;;;;;;;;;;;;;;;16.99;41.74;101047.69;4988689;28;1009;-56
2023/12/09 09:18:54;;;;;;;;;;;;;;;16.40;43.11;101035.03;4996610;28;1135;-55
2023/12/09 09:21:20;;;;;;;;;;;;;;;16.13;43.60;101040.63;4988535;28;1902;-49
2023/12/09 09:23:45;;;;;;;;;;;;;;;17.49;40.58;101052.72;4986583;28;2302;-51
2023/12/09 09:26:11;;;;;;;;;;;;;;;17.27;41.20;101053.81;4991124;28;1117;-53
2023/12/09 09:28:36;;;;;;;;;;;;;;;16.54;42.66;101054.59;4994890;28;1072;-55
2023/12/09 09:31:02;;;;;;;;;;;;;;;16.12;43.52;101055.41;4995669;28;1036;-56
2023/12/09 09:33:28;;;;;;;;;;;;;;;16.25;43.45;101060.47;4992848;28;1211;-51
2023/12/09 09:35:54;;;;;;;;;;;;;;;17.61;40.43;101075.28;4989015;28;1076;-53
2023/12/09 09:38:20;;;;;;;;;;;;;;;16.99;41.79;101064.16;4998785;28;1135;-54
2023/12/09 09:40:46;;;;;;;;;;;;;;;16.41;43.25;101062.22;4999032;28;1223;-53
2023/12/09 09:43:21;;;;;;;;;;;;;;;16.10;43.60;101043.91;4985692;28;1910;-51
2023/12/09 09:45:47;;;;;;;;;;;;;;;17.55;40.66;101049.72;4987962;28;1079;-49
2023/12/09 09:48:13;;;;;;;;;;;;;;;17.05;41.62;101045.78;4992519;28;1020;-54
2023/12/09 09:50:40;;;;;;;;;;;;;;;16.45;42.88;101046.03;4988278;28;1548;-52
2023/12/09 09:53:06;;;;;;;;;;;;;;;16.13;43.54;101046.09;4981386;28;1914;-56
2023/12/09 09:55:32;;;;;;;;;;;;;;;16.76;42.38;101058.00;4982956;28;1029;-56
2023/12/09 09:57:57;;;;;;;;;;;;;;;17.75;40.00;101062.69;4978278;28;1038;-55
2023/12/09 10:00:23;;;;;;;;;;;;;;;16.72;42.34;101065.13;4980287;28;1152;-56
2023/12/09 10:02:49;;;;;;;;;;;;;;;16.24;43.39;101067.88;4978907;28;1914;-54
2023/12/09 10:05:20;;;;;;;;;;;;;;;16.22;43.65;101066.47;4977203;28;1315;-53
2023/12/09 10:07:45;;;;;;;;;;;;;;;17.61;40.51;101069.78;4982953;28;1060;-55
2023/12/09 10:10:11;;;;;;;;;;;;;;;16.99;41.60;101074.34;4986261;28;1184;-54
2023/12/09 10:12:37;;;;;;;;;;;;;;;16.40;43.01;101071.53;4988990;28;1096;-55
2023/12/09 10:15:03;;;;;;;;;;;;;;;16.07;43.88;101076.25;4989100;28;1273;-55
2023/12/09 10:17:29;;;;;;;;;;;;;;;17.43;41.06;101088.47;4978027;28;1235;-55
2023/12/09 10:19:55;;;;;;;;;;;;;;;17.16;41.49;101085.09;4986878;28;1103;-55
2023/12/09 10:22:21;;;;;;;;;;;;;;;16.45;43.14;101087.19;4991584;28;1909;-55
2023/12/09 10:24:50;;;;;;;;;;;;;;;16.02;44.05;101098.16;4978056;28;2524;-56
2023/12/09 10:27:19;;;;;;;;;;;;;;;16.63;42.97;101083.19;4982800;28;1187;-54
2023/12/09 10:29:45;;;;;;;;;;;;;;;17.74;40.20;101099.53;4982803;28;1030;-53
2023/12/09 10:32:12;;;;;;;;;;;;;;;16.75;42.29;101089.28;4984850;28;1290;-54
2023/12/09 10:34:40;;;;;;;;;;;;;;;16.22;43.41;101078.28;4998220;28;1064;-51
2023/12/09 10:37:09;;;;;;;;;;;;;;;16.25;43.69;101087.91;4991339;28;1175;-54
2023/12/09 10:39:35;;;;;;;;;;;;;;;17.69;40.50;101088.50;4990905;28;1135;-56
2023/12/09 10:42:03;;;;;;;;;;;;;;;16.79;42.43;101086.84;5004557;28;1910;-53
2023/12/09 10:44:29;;;;;;;;;;;;;;;16.23;43.68;101079.13;4977466;28;1309;-53
2023/12/09 10:46:55;;;;;;;;;;;;;;;15.92;44.17;101084.34;4994821;28;1193;-53
2023/12/09 10:49:20;;;;;;;;;;;;;;;16.85;42.43;101091.25;4986702;28;1361;-48
2023/12/09 10:51:46;;;;;;;;;;;;;;;17.34;41.12;101094.78;4986878;28;1103;-56
2023/12/09 10:54:11;;;;;;;;;;;;;;;16.47;42.99;101089.69;4987825;28;1820;-54
2023/12/09 10:56:37;;;;;;;;;;;;;;;16.06;44.20;101088.31;4994797;28;901;-53
2023/12/09 10:59:03;;;;;;;;;;;;;;;17.34;41.44;101076.34;4982962;28;988;-52
2023/12/09 11:01:29;;;;;;;;;;;;;;;17.03;41.76;101058.97;4979352;28;1976;-49
2023/12/09 11:03:56;;;;;;;;;;;;;;;16.36;43.35;101070.41;4984973;28;1098;-51
2023/12/09 11:06:21;;;;;;;;;;;;;;;16.02;44.23;101065.25;4982482;28;1344;-55
2023/12/09 11:08:47;;;;;;;;;;;;;;;16.47;43.25;101056.75;4983203;28;1629;-51
2023/12/09 11:11:12;;;;;;;;;;;;;;;17.69;40.78;101049.19;4991443;28;970;-52
2023/12/09 11:13:39;;;;;;;;;;;;;;;16.89;42.18;101048.47;4995976;28;1118;-52
2023/12/09 11:16:08;;;;;;;;;;;;;;;16.27;43.37;101041.81;4997263;28;1060;-55
2023/12/09 11:18:34;;;;;;;;;;;;;;;17.32;41.49;101045.56;4987036;28;1024;-59
2023/12/09 11:21:01;;;;;;;;;;;;;;;17.02;41.99;101036.13;4985637;28;897;-54
2023/12/09 11:23:26;;;;;;;;;;;;;;;16.40;43.37;101030.38;4981694;28;2255;-55
2023/12/09 11:25:52;;;;;;;;;;;;;;;15.96;44.17;101044.34;4965497;28;1278;-52
2023/12/09 11:28:18;;;;;;;;;;;;;;;16.53;43.24;101044.72;4990656;28;871;-51
2023/12/09 11:30:46;;;;;;;;;;;;;;;17.74;40.63;101028.00;4983065;28;1194;-54
2023/12/09 11:33:12;;;;;;;;;;;;;;;16.80;42.21;101032.75;4996350;28;1191;-56
2023/12/09 11:35:38;;;;;;;;;;;;;;;16.33;43.26;101023.47;4997027;28;1035;-55
2023/12/09 11:38:04;;;;;;;;;;;;;;;15.98;44.10;101014.75;4983583;28;1020;-53
2023/12/09 11:40:30;;;;;;;;;;;;;;;16.41;43.53;101021.03;4997197;28;1084;-51
2023/12/09 11:42:56;;;;;;;;;;;;;;;17.61;40.66;101010.13;4983768;28;1989;-53
2023/12/09 11:45:22;;;;;;;;;;;;;;;17.28;41.07;101025.22;4983372;28;1073;-52
2023/12/09 11:47:47;;;;;;;;;;;;;;;16.50;42.91;101020.53;4978209;28;1053;-53
2023/12/09 11:50:16;;;;;;;;;;;;;;;16.17;43.80;101028.03;4990169;28;982;-54
2023/12/09 11:52:44;;;;;;;;;;;;;;;17.60;40.84;101027.72;4996508;28;1172;-55
2023/12/09 11:55:10;;;;;;;;;;;;;;;17.20;41.58;101036.75;4976602;28;2789;-51
2023/12/09 11:57:35;;;;;;;;;;;;;;;16.51;43.13;101030.41;4979064;28;1128;-53
2023/12/09 12:00:04;;;;;;;;;;;;;;;17.18;41.54;101036.19;4982779;28;1199;-53
2023/12/09 12:02:35;;;;;;;;;;;;;;;17.24;41.39;101035.13;4984101;28;1977;-54
2023/12/09 12:05:02;;;;;;;;;;;;;;;16.55;42.91;101026.03;4984711;28;1188;-54
2023/12/09 12:07:27;;;;;;;;;;;;;;;16.13;44.00;101010.44;4989644;28;1065;-52
2023/12/09 12:09:53;;;;;;;;;;;;;;;15.94;44.28;101026.50;4990531;28;1023;-51
2023/12/09 12:12:19;;;;;;;;;;;;;;;17.39;41.27;101029.63;4983216;28;1108;-55
2023/12/09 12:14:45;;;;;;;;;;;;;;;17.18;41.24;101023.28;4996866;28;1051;-55
2023/12/09 12:17:11;;;;;;;;;;;;;;;16.40;43.19;101024.06;4996713;28;1310;-55
2023/12/09 12:19:38;;;;;;;;;;;;;;;16.10;43.83;101024.69;5000348;28;1043;-51
2023/12/09 12:22:04;;;;;;;;;;;;;;;17.12;41.72;101026.28;4999655;28;1906;-52
2023/12/09 12:24:29;;;;;;;;;;;;;;;17.70;40.41;101021.41;4986968;28;2694;-51
2023/12/09 12:26:59;;;;;;;;;;;;;;;16.69;42.52;101018.97;4985686;28;1245;-51
2023/12/09 12:29:25;;;;;;;;;;;;;;;16.23;43.70;101024.25;4986975;28;1175;-54
2023/12/09 12:31:50;;;;;;;;;;;;;;;15.92;44.11;101018.53;4992897;28;1317;-56
2023/12/09 12:34:17;;;;;;;;;;;;;;;17.33;41.28;101029.91;4987844;28;1239;-56
2023/12/09 12:36:43;;;;;;;;;;;;;;;17.07;41.46;101022.44;4989387;28;1104;-55
2023/12/09 12:39:09;;;;;;;;;;;;;;;16.38;43.18;101032.56;4995891;28;1531;-54
2023/12/09 12:41:34;;;;;;;;;;;;;;;16.04;44.00;101016.41;4989692;28;1910;-54